createdAt,value
2019-03-01T00:01:50.695Z,36.50
2019-03-01T00:04:43.252Z,38.92
2019-03-01T00:07:50.117Z,38.15
2019-03-01T00:10:35.256Z,38.98
2019-03-01T00:13:25.009Z,39.98
2019-03-01T00:16:07.297Z,40.20
2019-03-01T00:19:00.264Z,40.63
2019-03-01T00:21:36.060Z,40.78
2019-03-01T00:24:14.152Z,41.98
2019-03-01T00:27:07.273Z,43.08
2019-03-01T00:29:47.384Z,44.85
2019-03-01T00:32:26.264Z,42.50
2019-03-01T00:34:59.367Z,41.48
2019-03-01T00:37:32.683Z,43.50
2019-03-01T00:40:17.787Z,40.10
2019-03-01T00:42:53.653Z,40.25
2019-03-01T00:45:23.622Z,41.40
2019-03-01T00:47:54.537Z,39.13
2019-03-01T00:50:24.490Z,40.08
2019-03-01T00:52:54.446Z,40.30
2019-03-01T00:55:24.500Z,38.45
2019-03-01T00:57:54.539Z,38.73
2019-03-01T01:00:30.512Z,40.08
2019-03-01T01:03:00.839Z,40.48
2019-03-01T01:05:30.952Z,41.90
2019-03-01T01:08:01.020Z,41.45
2019-03-01T01:10:40.121Z,40.98
2019-03-01T01:13:10.098Z,41.77
2019-03-01T01:15:40.117Z,40.40
2019-03-01T01:18:10.108Z,40.23
2019-03-01T01:20:40.163Z,39.00
2019-03-01T01:23:10.194Z,38.98
2019-03-01T01:25:40.318Z,35.75
2019-03-01T01:28:10.248Z,36.33
2019-03-01T01:30:40.249Z,37.53
2019-03-01T01:33:10.358Z,36.83
2019-03-01T01:35:40.456Z,37.05
2019-03-01T01:38:10.519Z,37.63
2019-03-01T01:40:40.660Z,38.30
2019-03-01T01:43:10.586Z,37.88
2019-03-01T01:45:41.608Z,37.95
2019-03-01T01:48:12.488Z,39.10
2019-03-01T01:50:42.498Z,38.10
2019-03-01T01:53:12.503Z,36.10
2019-03-01T01:55:42.453Z,37.53
2019-03-01T01:58:12.459Z,36.88
2019-03-01T02:00:42.544Z,38.48
2019-03-01T02:03:12.715Z,38.58
2019-03-01T02:05:42.675Z,38.63
2019-03-01T02:08:12.893Z,40.75
2019-03-01T02:10:42.851Z,40.40
2019-03-01T02:13:12.824Z,39.90
2019-03-01T02:15:43.116Z,40.08
2019-03-01T02:18:13.199Z,41.55
2019-03-01T02:20:43.330Z,40.08
2019-03-01T02:23:13.347Z,41.20
2019-03-01T02:25:43.297Z,40.48
2019-03-01T02:28:13.280Z,41.05
2019-03-01T02:30:46.664Z,39.67
2019-03-01T02:33:17.646Z,39.98
2019-03-01T02:35:47.652Z,40.43
2019-03-01T02:38:17.678Z,40.20
2019-03-01T02:40:47.787Z,40.17
2019-03-01T02:43:18.117Z,41.02
2019-03-01T02:45:48.070Z,41.28
2019-03-01T02:48:18.041Z,40.30
2019-03-01T02:50:48.447Z,40.90
2019-03-01T02:53:18.394Z,42.08
2019-03-01T02:55:48.405Z,43.83
2019-03-01T02:58:18.398Z,44.35
2019-03-01T03:00:48.553Z,43.52
2019-03-01T03:03:19.789Z,43.15
2019-03-01T03:05:57.759Z,42.53
2019-03-01T03:08:27.896Z,43.68
2019-03-01T03:10:57.850Z,45.90
2019-03-01T03:13:27.907Z,43.15
2019-03-01T03:15:58.368Z,43.85
2019-03-01T03:18:28.448Z,42.85
2019-03-01T03:20:58.484Z,44.77
2019-03-01T03:23:28.537Z,41.58
2019-03-01T03:25:58.477Z,42.58
2019-03-01T03:28:28.482Z,40.28
2019-03-01T03:30:58.418Z,40.65
2019-03-01T03:33:28.378Z,41.50
2019-03-01T03:35:58.374Z,41.53
2019-03-01T03:38:28.383Z,42.45
2019-03-01T03:40:58.513Z,45.28
2019-03-01T03:43:28.585Z,44.53
2019-03-01T03:45:58.572Z,42.93
2019-03-01T03:48:29.503Z,45.12
2019-03-01T03:50:59.427Z,43.25
2019-03-01T03:53:29.387Z,47.13
2019-03-01T03:55:59.379Z,48.58
2019-03-01T03:58:30.596Z,46.58
2019-03-01T04:01:00.686Z,48.10
2019-03-01T04:03:30.640Z,48.70
2019-03-01T04:06:00.707Z,47.95
2019-03-01T04:08:30.911Z,50.23
2019-03-01T04:11:00.924Z,49.65
2019-03-01T04:13:31.302Z,50.83
2019-03-01T04:16:01.355Z,49.73
2019-03-01T04:18:31.461Z,50.95
2019-03-01T04:21:01.498Z,51.53
2019-03-01T04:23:31.576Z,52.33
2019-03-01T04:26:01.574Z,52.38
2019-03-01T04:28:31.892Z,53.00
2019-03-01T04:31:03.673Z,49.83
2019-03-01T04:33:34.196Z,54.10
2019-03-01T04:36:04.255Z,54.13
2019-03-01T04:38:34.228Z,51.08
2019-03-01T04:41:04.279Z,51.00
2019-03-01T04:43:35.216Z,53.55
2019-03-01T04:46:05.284Z,54.33
2019-03-01T04:48:36.387Z,54.42
2019-03-01T04:51:06.785Z,54.48
2019-03-01T04:53:36.834Z,54.88
2019-03-01T04:56:07.507Z,55.83
2019-03-01T04:58:37.623Z,55.70
2019-03-01T05:01:08.640Z,56.95
2019-03-01T05:03:38.577Z,55.33
2019-03-01T05:06:09.340Z,56.20
2019-03-01T05:08:39.889Z,55.20
2019-03-01T05:11:10.307Z,55.55
2019-03-01T05:13:40.726Z,54.67
2019-03-01T05:16:10.897Z,54.55
2019-03-01T05:18:40.840Z,58.75
2019-03-01T05:21:11.036Z,57.78
2019-03-01T05:23:41.102Z,59.35
2019-03-01T05:26:11.067Z,53.80
2019-03-01T05:28:41.027Z,55.98
2019-03-01T05:31:12.582Z,56.48
2019-03-01T05:33:43.006Z,57.27
2019-03-01T05:36:13.088Z,56.48
2019-03-01T05:38:43.162Z,53.98
2019-03-01T05:41:13.481Z,54.80
2019-03-01T05:43:43.449Z,56.53
2019-03-01T05:46:13.415Z,56.37
2019-03-01T05:48:44.251Z,53.85
2019-03-01T05:51:14.254Z,53.50
2019-03-01T05:53:44.214Z,52.08
2019-03-01T05:56:14.168Z,52.15
2019-03-01T05:58:44.561Z,52.10
2019-03-01T06:01:20.600Z,53.48
2019-03-01T06:03:59.755Z,49.63
2019-03-01T06:06:35.522Z,46.90
2019-03-01T06:09:24.643Z,47.73
2019-03-01T06:12:01.021Z,46.53
2019-03-01T06:14:49.154Z,47.10
2019-03-01T06:17:28.171Z,45.80
2019-03-01T06:20:25.573Z,44.63
2019-03-01T06:23:01.592Z,45.00
2019-03-01T06:25:51.364Z,43.87
2019-03-01T06:28:40.771Z,43.40
2019-03-01T06:31:28.973Z,44.10
2019-03-01T06:34:07.895Z,43.63
2019-03-01T06:36:47.442Z,44.93
2019-03-01T06:39:37.596Z,45.45
2019-03-01T06:42:19.872Z,44.03
2019-03-01T06:45:25.172Z,43.78
2019-03-01T06:47:55.576Z,42.55
2019-03-01T06:50:29.983Z,44.38
2019-03-01T06:52:59.985Z,44.38
2019-03-01T06:55:34.270Z,40.25
2019-03-01T06:58:04.950Z,38.83
2019-03-01T07:00:36.446Z,37.03
2019-03-01T07:03:06.620Z,35.55
2019-03-01T07:05:36.329Z,36.80
2019-03-01T07:08:06.551Z,38.05
2019-03-01T07:10:36.484Z,38.05
2019-03-01T07:13:06.475Z,39.05
2019-03-01T07:15:36.552Z,40.30
2019-03-01T07:18:06.741Z,36.73
2019-03-01T07:20:36.672Z,37.17
2019-03-01T07:23:06.753Z,40.73
2019-03-01T07:25:37.106Z,39.85
2019-03-01T07:28:07.257Z,40.40
2019-03-01T07:30:37.224Z,41.20
2019-03-01T07:33:07.258Z,42.88
2019-03-01T07:35:37.530Z,42.03
2019-03-01T07:38:07.803Z,31.37
2019-03-01T07:40:37.871Z,40.80
2019-03-01T07:43:07.968Z,40.80
2019-03-01T07:45:37.967Z,38.38
2019-03-01T07:48:08.023Z,40.75
2019-03-01T07:50:38.323Z,42.78
2019-03-01T07:53:09.590Z,40.65
2019-03-01T07:55:39.632Z,39.45
2019-03-01T07:58:13.900Z,35.43
2019-03-01T08:00:53.159Z,44.70
2019-03-01T08:03:19.814Z,43.98
2019-03-01T08:05:49.877Z,42.90
2019-03-01T08:08:19.849Z,41.23
2019-03-01T08:10:49.856Z,41.98
2019-03-01T08:13:19.863Z,38.25
2019-03-01T08:15:49.955Z,41.48
2019-03-01T08:18:20.259Z,38.30
2019-03-01T08:20:50.421Z,42.33
2019-03-01T08:23:20.455Z,39.88
2019-03-01T08:25:50.469Z,44.08
2019-03-01T08:28:22.031Z,41.75
2019-03-01T08:30:53.336Z,42.48
2019-03-01T08:33:23.303Z,40.15
2019-03-01T08:35:53.484Z,40.12
2019-03-01T08:38:25.493Z,34.88
2019-03-01T08:40:56.789Z,42.23
2019-03-01T08:43:26.792Z,43.28
2019-03-01T08:45:57.156Z,44.10
2019-03-01T08:48:27.164Z,39.67
2019-03-01T08:50:57.105Z,40.33
2019-03-01T08:53:27.237Z,41.25
2019-03-01T08:55:58.139Z,40.58
2019-03-01T08:58:28.319Z,44.27
2019-03-01T09:00:59.901Z,42.80
2019-03-01T09:03:33.292Z,41.60
2019-03-01T09:06:03.256Z,40.15
2019-03-01T09:08:33.433Z,39.55
2019-03-01T09:11:05.533Z,42.50
2019-03-01T09:13:36.183Z,40.83
2019-03-01T09:16:06.637Z,46.63
2019-03-01T09:18:36.577Z,43.75
2019-03-01T09:21:12.379Z,40.20
2019-03-01T09:23:39.773Z,45.00
2019-03-01T09:26:09.805Z,42.45
2019-03-01T09:28:39.946Z,45.05
2019-03-01T09:31:10.004Z,36.25
2019-03-01T09:33:39.950Z,42.50
2019-03-01T09:36:21.296Z,44.13
2019-03-01T09:38:50.662Z,43.42
2019-03-01T09:41:20.639Z,43.23
2019-03-01T09:43:50.924Z,41.48
2019-03-01T09:46:24.038Z,39.20
2019-03-01T09:48:52.669Z,40.73
2019-03-01T09:51:22.685Z,40.17
2019-03-01T09:53:52.942Z,39.25
2019-03-01T09:56:24.495Z,33.28
2019-03-01T09:58:54.491Z,32.10
2019-03-01T10:01:24.626Z,33.13
2019-03-01T10:03:56.243Z,32.35
2019-03-01T10:06:27.673Z,33.92
2019-03-01T10:08:57.868Z,33.13
2019-03-01T10:11:28.065Z,32.03
2019-03-01T10:13:58.342Z,34.00
2019-03-01T10:16:28.335Z,36.80
2019-03-01T10:18:58.282Z,35.48
2019-03-01T10:21:28.341Z,35.98
2019-03-01T10:23:57.976Z,36.80
2019-03-01T10:26:27.555Z,38.38
2019-03-01T10:28:57.582Z,34.38
2019-03-01T10:31:27.583Z,36.45
